Main page
METAR-TAF:

METAR-TAF

Airports :

Bauerfield International Airport

Port Vila, Efate, Vanuatu

latitude: 17-42S, longitude: 168-18E, elevation: 20 m

Current weather observation

The report was made 21 minutes ago, at 13:00 UTC
Wind 3 kt from the North
Temperature 27°C
Humidity 94%
Pressure 1009 hPa
Visibility 10 km or more
Broken clouds at a height of 2000 ft
Few clouds at a height of 2500 ft, Cumulonimbus.

METAR: NVVV 291300Z 01003KT 9999 BKN020 FEW025CB 27/26 Q1009 RMKS CB W

Time: 00:21 (13:21 UTC)

Forecast

The report was made 3 hours and 21 minutes ago, at 10:00 UTC
Forecast valid from 29 at 12 UTC to 01 at 12 UTC
Wind 3 kt from variable directions
Visibility 10 km or more
Scattered clouds at a height of 2000 ft
Probability 30%
between IN and TE UTC
Visibility: 9000 m
Broken clouds at a height of 1800 ft
Few clouds at a height of 2500 ft, Cumulonimbus.
light rain showers

TAF: NVVV 291000Z 2912/0112 VRB03KT 9999 SCT020 PROB30 INTER 2912/2918 9000 -SHRA BKN018 FEW025CB

Weather observations and forecasts of more than 4000 airports (METAR and TAF reports).

The available stations are represented by yellow and red dots on the map.

Hover mouse over dot to see the name of the station.

Then click to see weather observations and forecasts.

To change the map : click on the green buttons with a black cross to zoom in, on the green button with a dash to zoom out, or on the green arrows for adjacent maps.


METAR-TAF: